sensor_id;sensor_type;location;lat;lon;timestamp;temperature;humidity
54178;DHT22;40085;53.004;6.770;2023-05-28T00:00:55;11.10;1.00
54178;DHT22;40085;53.004;6.770;2023-05-28T00:03:24;11.10;1.00
54178;DHT22;40085;53.004;6.770;2023-05-28T00:05:50;11.10;97.00
54178;DHT22;40085;53.004;6.770;2023-05-28T00:08:16;11.00;99.90
54178;DHT22;40085;53.004;6.770;2023-05-28T00:10:42;11.00;99.90
54178;DHT22;40085;53.004;6.770;2023-05-28T00:13:07;11.00;99.90
54178;DHT22;40085;53.004;6.770;2023-05-28T00:15:33;11.00;99.90
54178;DHT22;40085;53.004;6.770;2023-05-28T00:17:59;10.90;99.90
54178;DHT22;40085;53.004;6.770;2023-05-28T00:20:25;10.90;99.90
54178;DHT22;40085;53.004;6.770;2023-05-28T00:22:50;11.50;99.90
54178;DHT22;40085;53.004;6.770;2023-05-28T00:25:16;11.30;99.90
54178;DHT22;40085;53.004;6.770;2023-05-28T00:27:42;10.80;99.90
54178;DHT22;40085;53.004;6.770;2023-05-28T00:30:08;10.80;99.90
54178;DHT22;40085;53.004;6.770;2023-05-28T00:32:33;10.80;99.90
54178;DHT22;40085;53.004;6.770;2023-05-28T00:34:59;10.80;1.00
54178;DHT22;40085;53.004;6.770;2023-05-28T00:37:25;10.80;93.70
54178;DHT22;40085;53.004;6.770;2023-05-28T00:39:50;10.70;1.00
54178;DHT22;40085;53.004;6.770;2023-05-28T00:42:16;10.70;99.90
54178;DHT22;40085;53.004;6.770;2023-05-28T00:44:42;10.80;99.90
54178;DHT22;40085;53.004;6.770;2023-05-28T00:47:08;10.70;99.90
54178;DHT22;40085;53.004;6.770;2023-05-28T00:49:35;10.70;99.90
54178;DHT22;40085;53.004;6.770;2023-05-28T00:52:01;10.70;98.50
54178;DHT22;40085;53.004;6.770;2023-05-28T00:54:27;10.60;1.00
54178;DHT22;40085;53.004;6.770;2023-05-28T00:56:55;10.70;99.90
54178;DHT22;40085;53.004;6.770;2023-05-28T00:59:24;11.10;99.90
54178;DHT22;40085;53.004;6.770;2023-05-28T01:01:50;10.70;99.90
54178;DHT22;40085;53.004;6.770;2023-05-28T01:04:16;10.70;99.90
54178;DHT22;40085;53.004;6.770;2023-05-28T01:06:43;10.70;85.40
54178;DHT22;40085;53.004;6.770;2023-05-28T01:09:09;10.70;99.90
54178;DHT22;40085;53.004;6.770;2023-05-28T01:11:36;10.70;99.90
54178;DHT22;40085;53.004;6.770;2023-05-28T01:14:05;10.70;99.90
54178;DHT22;40085;53.004;6.770;2023-05-28T01:16:31;10.70;99.90
54178;DHT22;40085;53.004;6.770;2023-05-28T01:18:58;10.70;99.90
54178;DHT22;40085;53.004;6.770;2023-05-28T01:21:25;10.70;99.90
54178;DHT22;40085;53.004;6.770;2023-05-28T01:23:53;10.90;1.00
54178;DHT22;40085;53.004;6.770;2023-05-28T01:26:20;10.70;99.90
54178;DHT22;40085;53.004;6.770;2023-05-28T01:28:48;10.70;19.30
54178;DHT22;40085;53.004;6.770;2023-05-28T01:31:14;10.70;1.00
54178;DHT22;40085;53.004;6.770;2023-05-28T01:33:41;10.70;99.90
54178;DHT22;40085;53.004;6.770;2023-05-28T01:36:17;10.60;99.90
54178;DHT22;40085;53.004;6.770;2023-05-28T01:38:46;10.70;99.90
54178;DHT22;40085;53.004;6.770;2023-05-28T01:41:14;11.30;99.90
54178;DHT22;40085;53.004;6.770;2023-05-28T01:43:40;10.70;99.90
54178;DHT22;40085;53.004;6.770;2023-05-28T01:46:07;10.70;1.00
54178;DHT22;40085;53.004;6.770;2023-05-28T01:48:34;10.70;99.90
54178;DHT22;40085;53.004;6.770;2023-05-28T01:51:00;10.70;1.00
54178;DHT22;40085;53.004;6.770;2023-05-28T01:53:25;11.50;99.90
54178;DHT22;40085;53.004;6.770;2023-05-28T01:55:51;10.70;99.90
54178;DHT22;40085;53.004;6.770;2023-05-28T01:58:16;10.70;99.90
54178;DHT22;40085;53.004;6.770;2023-05-28T02:00:47;10.70;99.90
54178;DHT22;40085;53.004;6.770;2023-05-28T02:03:17;10.70;1.00
54178;DHT22;40085;53.004;6.770;2023-05-28T02:05:42;10.70;1.00
54178;DHT22;40085;53.004;6.770;2023-05-28T02:08:08;10.70;12.30
54178;DHT22;40085;53.004;6.770;2023-05-28T02:10:33;11.50;99.90
54178;DHT22;40085;53.004;6.770;2023-05-28T02:12:59;10.80;99.90
54178;DHT22;40085;53.004;6.770;2023-05-28T02:15:26;10.70;1.00
54178;DHT22;40085;53.004;6.770;2023-05-28T02:17:51;10.70;99.90
54178;DHT22;40085;53.004;6.770;2023-05-28T02:20:17;10.70;99.90
54178;DHT22;40085;53.004;6.770;2023-05-28T02:22:43;10.70;1.00
54178;DHT22;40085;53.004;6.770;2023-05-28T02:25:08;10.70;28.30
54178;DHT22;40085;53.004;6.770;2023-05-28T02:27:34;10.70;99.90
54178;DHT22;40085;53.004;6.770;2023-05-28T02:30:01;10.60;99.90
54178;DHT22;40085;53.004;6.770;2023-05-28T02:32:27;10.30;99.90
54178;DHT22;40085;53.004;6.770;2023-05-28T02:34:52;10.60;99.90
54178;DHT22;40085;53.004;6.770;2023-05-28T02:37:20;10.60;99.90
54178;DHT22;40085;53.004;6.770;2023-05-28T02:39:49;10.80;99.90
54178;DHT22;40085;53.004;6.770;2023-05-28T02:42:16;10.60;1.00
54178;DHT22;40085;53.004;6.770;2023-05-28T02:44:41;10.70;99.90
54178;DHT22;40085;53.004;6.770;2023-05-28T02:47:07;10.70;99.90
54178;DHT22;40085;53.004;6.770;2023-05-28T02:49:33;10.60;99.90
54178;DHT22;40085;53.004;6.770;2023-05-28T02:51:58;10.70;99.90
54178;DHT22;40085;53.004;6.770;2023-05-28T02:54:24;10.70;99.90
54178;DHT22;40085;53.004;6.770;2023-05-28T02:56:51;10.70;99.90
54178;DHT22;40085;53.004;6.770;2023-05-28T02:59:17;10.70;99.90
54178;DHT22;40085;53.004;6.770;2023-05-28T03:01:42;10.70;99.90
54178;DHT22;40085;53.004;6.770;2023-05-28T03:04:08;10.70;99.90
54178;DHT22;40085;53.004;6.770;2023-05-28T03:06:33;10.70;99.90
54178;DHT22;40085;53.004;6.770;2023-05-28T03:08:59;10.70;26.80
54178;DHT22;40085;53.004;6.770;2023-05-28T03:11:25;10.70;1.00
54178;DHT22;40085;53.004;6.770;2023-05-28T03:13:50;10.70;8.00
54178;DHT22;40085;53.004;6.770;2023-05-28T03:16:16;10.80;99.90
54178;DHT22;40085;53.004;6.770;2023-05-28T03:18:42;10.70;99.90
54178;DHT22;40085;53.004;6.770;2023-05-28T03:21:07;10.80;99.90
54178;DHT22;40085;53.004;6.770;2023-05-28T03:23:34;10.70;99.90
54178;DHT22;40085;53.004;6.770;2023-05-28T03:26:00;10.70;98.80
54178;DHT22;40085;53.004;6.770;2023-05-28T03:28:25;10.70;99.90
54178;DHT22;40085;53.004;6.770;2023-05-28T03:30:53;10.70;99.90
54178;DHT22;40085;53.004;6.770;2023-05-28T03:33:19;10.70;17.80
54178;DHT22;40085;53.004;6.770;2023-05-28T03:35:44;10.70;99.90
54178;DHT22;40085;53.004;6.770;2023-05-28T03:38:10;10.70;1.00
54178;DHT22;40085;53.004;6.770;2023-05-28T03:40:35;10.70;1.00
54178;DHT22;40085;53.004;6.770;2023-05-28T03:43:01;10.70;48.10
54178;DHT22;40085;53.004;6.770;2023-05-28T03:45:26;10.70;1.00
54178;DHT22;40085;53.004;6.770;2023-05-28T03:47:52;10.70;35.90
54178;DHT22;40085;53.004;6.770;2023-05-28T03:50:18;10.70;1.00
54178;DHT22;40085;53.004;6.770;2023-05-28T03:52:43;10.70;99.90
54178;DHT22;40085;53.004;6.770;2023-05-28T03:55:09;10.70;99.90
54178;DHT22;40085;53.004;6.770;2023-05-28T03:57:34;10.70;99.90
54178;DHT22;40085;53.004;6.770;2023-05-28T04:00:00;10.70;99.90
54178;DHT22;40085;53.004;6.770;2023-05-28T04:02:26;10.70;99.90
54178;DHT22;40085;53.004;6.770;2023-05-28T04:04:51;10.70;1.00
54178;DHT22;40085;53.004;6.770;2023-05-28T04:07:17;10.70;99.90
54178;DHT22;40085;53.004;6.770;2023-05-28T04:09:43;10.70;99.90
54178;DHT22;40085;53.004;6.770;2023-05-28T04:12:08;10.70;99.90
54178;DHT22;40085;53.004;6.770;2023-05-28T04:14:34;10.70;1.00
54178;DHT22;40085;53.004;6.770;2023-05-28T04:17:00;10.70;1.00
54178;DHT22;40085;53.004;6.770;2023-05-28T04:19:25;10.70;99.90
54178;DHT22;40085;53.004;6.770;2023-05-28T04:21:51;11.70;1.00
54178;DHT22;40085;53.004;6.770;2023-05-28T04:24:16;10.70;1.00
54178;DHT22;40085;53.004;6.770;2023-05-28T04:26:42;10.70;99.90
54178;DHT22;40085;53.004;6.770;2023-05-28T04:29:07;10.70;1.00
54178;DHT22;40085;53.004;6.770;2023-05-28T04:31:33;13.50;1.00
54178;DHT22;40085;53.004;6.770;2023-05-28T04:33:58;11.20;1.00
54178;DHT22;40085;53.004;6.770;2023-05-28T04:36:24;10.80;1.00
54178;DHT22;40085;53.004;6.770;2023-05-28T04:38:55;10.90;1.00
54178;DHT22;40085;53.004;6.770;2023-05-28T04:41:23;10.90;1.00
54178;DHT22;40085;53.004;6.770;2023-05-28T04:43:49;10.90;1.00
54178;DHT22;40085;53.004;6.770;2023-05-28T04:46:14;10.90;1.00
54178;DHT22;40085;53.004;6.770;2023-05-28T04:48:40;10.90;1.00
54178;DHT22;40085;53.004;6.770;2023-05-28T04:51:05;10.90;1.00
54178;DHT22;40085;53.004;6.770;2023-05-28T04:53:31;11.00;1.00
54178;DHT22;40085;53.004;6.770;2023-05-28T04:55:59;11.00;84.80
54178;DHT22;40085;53.004;6.770;2023-05-28T04:58:24;11.00;64.80
54178;DHT22;40085;53.004;6.770;2023-05-28T05:00:50;11.10;1.00
54178;DHT22;40085;53.004;6.770;2023-05-28T05:03:18;11.20;69.30
54178;DHT22;40085;53.004;6.770;2023-05-28T05:05:43;11.20;1.00
54178;DHT22;40085;53.004;6.770;2023-05-28T05:08:09;11.30;1.00
54178;DHT22;40085;53.004;6.770;2023-05-28T05:10:39;11.30;1.00
54178;DHT22;40085;53.004;6.770;2023-05-28T05:13:05;11.30;99.90
54178;DHT22;40085;53.004;6.770;2023-05-28T05:15:30;11.40;99.90
54178;DHT22;40085;53.004;6.770;2023-05-28T05:17:56;11.40;99.90
54178;DHT22;40085;53.004;6.770;2023-05-28T05:20:21;11.40;99.90
54178;DHT22;40085;53.004;6.770;2023-05-28T05:22:47;11.50;99.90
54178;DHT22;40085;53.004;6.770;2023-05-28T05:25:13;11.60;99.90
54178;DHT22;40085;53.004;6.770;2023-05-28T05:27:38;11.60;99.90
54178;DHT22;40085;53.004;6.770;2023-05-28T05:30:04;11.70;54.80
54178;DHT22;40085;53.004;6.770;2023-05-28T05:32:30;11.80;1.00
54178;DHT22;40085;53.004;6.770;2023-05-28T05:34:56;12.00;99.90
54178;DHT22;40085;53.004;6.770;2023-05-28T05:37:22;12.10;1.00
54178;DHT22;40085;53.004;6.770;2023-05-28T05:39:49;12.20;99.90
54178;DHT22;40085;53.004;6.770;2023-05-28T05:42:14;12.30;99.90
54178;DHT22;40085;53.004;6.770;2023-05-28T05:44:40;12.30;99.90
54178;DHT22;40085;53.004;6.770;2023-05-28T05:47:06;12.40;99.90
54178;DHT22;40085;53.004;6.770;2023-05-28T05:49:31;12.40;99.90
54178;DHT22;40085;53.004;6.770;2023-05-28T05:51:57;12.60;99.90
54178;DHT22;40085;53.004;6.770;2023-05-28T05:54:22;12.60;99.90
54178;DHT22;40085;53.004;6.770;2023-05-28T05:56:48;13.30;99.90
54178;DHT22;40085;53.004;6.770;2023-05-28T05:59:14;12.90;99.90
54178;DHT22;40085;53.004;6.770;2023-05-28T06:01:39;12.70;1.00
54178;DHT22;40085;53.004;6.770;2023-05-28T06:04:05;12.70;99.90
54178;DHT22;40085;53.004;6.770;2023-05-28T06:06:31;12.60;1.00
54178;DHT22;40085;53.004;6.770;2023-05-28T06:08:56;12.70;1.00
54178;DHT22;40085;53.004;6.770;2023-05-28T06:11:22;12.80;99.90
54178;DHT22;40085;53.004;6.770;2023-05-28T06:13:49;12.90;99.90
54178;DHT22;40085;53.004;6.770;2023-05-28T06:16:16;13.30;16.00
54178;DHT22;40085;53.004;6.770;2023-05-28T06:18:41;13.20;99.90
54178;DHT22;40085;53.004;6.770;2023-05-28T06:21:07;13.90;54.80
54178;DHT22;40085;53.004;6.770;2023-05-28T06:23:36;13.20;27.70
54178;DHT22;40085;53.004;6.770;2023-05-28T06:26:01;13.70;99.90
54178;DHT22;40085;53.004;6.770;2023-05-28T06:28:28;13.90;99.90
54178;DHT22;40085;53.004;6.770;2023-05-28T06:30:53;14.00;99.90
54178;DHT22;40085;53.004;6.770;2023-05-28T06:33:19;14.10;99.90
54178;DHT22;40085;53.004;6.770;2023-05-28T06:35:46;14.20;99.90
54178;DHT22;40085;53.004;6.770;2023-05-28T06:38:11;14.40;60.30
54178;DHT22;40085;53.004;6.770;2023-05-28T06:40:37;14.50;1.00
54178;DHT22;40085;53.004;6.770;2023-05-28T06:43:02;14.70;1.00
54178;DHT22;40085;53.004;6.770;2023-05-28T06:45:28;15.00;99.90
54178;DHT22;40085;53.004;6.770;2023-05-28T06:47:54;14.90;99.90
54178;DHT22;40085;53.004;6.770;2023-05-28T06:50:20;15.10;99.90
54178;DHT22;40085;53.004;6.770;2023-05-28T06:52:45;15.20;99.90
54178;DHT22;40085;53.004;6.770;2023-05-28T06:55:11;15.20;99.90
54178;DHT22;40085;53.004;6.770;2023-05-28T06:57:37;15.30;99.90
54178;DHT22;40085;53.004;6.770;2023-05-28T07:00:04;15.20;99.90
54178;DHT22;40085;53.004;6.770;2023-05-28T07:02:44;15.40;99.90
54178;DHT22;40085;53.004;6.770;2023-05-28T07:05:10;15.30;99.90
54178;DHT22;40085;53.004;6.770;2023-05-28T07:07:36;15.60;99.90
54178;DHT22;40085;53.004;6.770;2023-05-28T07:10:02;15.70;99.90
54178;DHT22;40085;53.004;6.770;2023-05-28T07:12:28;15.80;99.90
54178;DHT22;40085;53.004;6.770;2023-05-28T07:14:54;15.90;99.90
54178;DHT22;40085;53.004;6.770;2023-05-28T07:17:20;16.00;99.90
54178;DHT22;40085;53.004;6.770;2023-05-28T07:19:47;16.20;99.90
54178;DHT22;40085;53.004;6.770;2023-05-28T07:22:12;16.50;99.90
54178;DHT22;40085;53.004;6.770;2023-05-28T07:24:38;16.30;99.90
54178;DHT22;40085;53.004;6.770;2023-05-28T07:27:04;16.40;99.30
54178;DHT22;40085;53.004;6.770;2023-05-28T07:29:29;16.40;93.70
54178;DHT22;40085;53.004;6.770;2023-05-28T07:31:55;16.50;85.80
54178;DHT22;40085;53.004;6.770;2023-05-28T07:34:21;16.60;80.40
54178;DHT22;40085;53.004;6.770;2023-05-28T07:36:46;16.70;81.60
54178;DHT22;40085;53.004;6.770;2023-05-28T07:39:12;16.80;76.80
54178;DHT22;40085;53.004;6.770;2023-05-28T07:41:38;16.90;69.40
54178;DHT22;40085;53.004;6.770;2023-05-28T07:44:04;17.10;67.60
54178;DHT22;40085;53.004;6.770;2023-05-28T07:46:31;17.10;67.40
54178;DHT22;40085;53.004;6.770;2023-05-28T07:48:57;17.10;57.70
54178;DHT22;40085;53.004;6.770;2023-05-28T07:51:23;17.20;54.20
54178;DHT22;40085;53.004;6.770;2023-05-28T07:53:48;17.30;51.10
54178;DHT22;40085;53.004;6.770;2023-05-28T07:56:14;17.40;54.40
54178;DHT22;40085;53.004;6.770;2023-05-28T07:58:45;17.30;53.60
54178;DHT22;40085;53.004;6.770;2023-05-28T08:01:11;17.60;51.60
54178;DHT22;40085;53.004;6.770;2023-05-28T08:03:37;17.60;46.00
54178;DHT22;40085;53.004;6.770;2023-05-28T08:06:04;17.70;49.70
54178;DHT22;40085;53.004;6.770;2023-05-28T08:10:56;17.90;40.90
54178;DHT22;40085;53.004;6.770;2023-05-28T08:13:21;18.00;47.90
54178;DHT22;40085;53.004;6.770;2023-05-28T08:15:47;18.30;48.90
54178;DHT22;40085;53.004;6.770;2023-05-28T08:18:13;18.20;51.20
54178;DHT22;40085;53.004;6.770;2023-05-28T08:20:39;18.30;50.60
54178;DHT22;40085;53.004;6.770;2023-05-28T08:23:05;18.30;47.70
54178;DHT22;40085;53.004;6.770;2023-05-28T08:25:32;18.20;58.60
54178;DHT22;40085;53.004;6.770;2023-05-28T08:27:57;18.30;48.90
54178;DHT22;40085;53.004;6.770;2023-05-28T08:30:23;18.30;48.00
54178;DHT22;40085;53.004;6.770;2023-05-28T08:32:48;18.40;47.20
54178;DHT22;40085;53.004;6.770;2023-05-28T08:35:14;18.30;45.30
54178;DHT22;40085;53.004;6.770;2023-05-28T08:37:40;18.50;48.00
54178;DHT22;40085;53.004;6.770;2023-05-28T08:40:06;18.60;49.30
54178;DHT22;40085;53.004;6.770;2023-05-28T08:42:34;18.50;32.50
54178;DHT22;40085;53.004;6.770;2023-05-28T08:45:04;18.60;45.50
54178;DHT22;40085;53.004;6.770;2023-05-28T08:47:33;18.60;43.10
54178;DHT22;40085;53.004;6.770;2023-05-28T08:50:03;18.70;44.90
54178;DHT22;40085;53.004;6.770;2023-05-28T08:52:31;18.70;37.90
54178;DHT22;40085;53.004;6.770;2023-05-28T08:55:01;18.70;39.20
54178;DHT22;40085;53.004;6.770;2023-05-28T08:57:29;18.70;36.60
54178;DHT22;40085;53.004;6.770;2023-05-28T08:59:55;18.60;32.10
54178;DHT22;40085;53.004;6.770;2023-05-28T09:02:24;18.70;34.40
54178;DHT22;40085;53.004;6.770;2023-05-28T09:04:50;18.60;32.40
54178;DHT22;40085;53.004;6.770;2023-05-28T09:07:16;18.80;34.50
54178;DHT22;40085;53.004;6.770;2023-05-28T09:09:41;18.80;30.90
54178;DHT22;40085;53.004;6.770;2023-05-28T09:12:11;18.80;32.20
54178;DHT22;40085;53.004;6.770;2023-05-28T09:14:38;18.90;32.60
54178;DHT22;40085;53.004;6.770;2023-05-28T09:17:05;19.00;33.00
54178;DHT22;40085;53.004;6.770;2023-05-28T09:19:34;19.00;31.60
54178;DHT22;40085;53.004;6.770;2023-05-28T09:22:01;19.10;32.30
54178;DHT22;40085;53.004;6.770;2023-05-28T09:24:29;19.30;32.40
54178;DHT22;40085;53.004;6.770;2023-05-28T09:26:55;19.30;33.60
54178;DHT22;40085;53.004;6.770;2023-05-28T09:29:23;19.30;29.10
54178;DHT22;40085;53.004;6.770;2023-05-28T09:34:28;19.40;28.30
54178;DHT22;40085;53.004;6.770;2023-05-28T09:37:05;19.50;28.70
54178;DHT22;40085;53.004;6.770;2023-05-28T09:39:32;19.50;28.50
54178;DHT22;40085;53.004;6.770;2023-05-28T09:42:01;19.60;28.50
54178;DHT22;40085;53.004;6.770;2023-05-28T09:44:39;19.70;28.40
54178;DHT22;40085;53.004;6.770;2023-05-28T09:47:15;19.70;28.40
54178;DHT22;40085;53.004;6.770;2023-05-28T09:49:43;19.80;27.50
54178;DHT22;40085;53.004;6.770;2023-05-28T09:52:16;19.80;25.70
54178;DHT22;40085;53.004;6.770;2023-05-28T09:54:47;19.90;28.60
54178;DHT22;40085;53.004;6.770;2023-05-28T09:57:18;20.00;28.70
54178;DHT22;40085;53.004;6.770;2023-05-28T09:59:50;19.90;28.00
54178;DHT22;40085;53.004;6.770;2023-05-28T10:04:57;20.00;27.90
54178;DHT22;40085;53.004;6.770;2023-05-28T10:07:26;19.90;27.00
54178;DHT22;40085;53.004;6.770;2023-05-28T10:09:54;20.00;27.40
54178;DHT22;40085;53.004;6.770;2023-05-28T10:12:24;20.10;40.80
54178;DHT22;40085;53.004;6.770;2023-05-28T10:14:51;20.00;27.50
54178;DHT22;40085;53.004;6.770;2023-05-28T10:17:17;20.10;26.80
54178;DHT22;40085;53.004;6.770;2023-05-28T10:19:46;20.10;30.90
54178;DHT22;40085;53.004;6.770;2023-05-28T10:22:12;20.10;26.10
54178;DHT22;40085;53.004;6.770;2023-05-28T10:24:38;20.10;26.80
54178;DHT22;40085;53.004;6.770;2023-05-28T10:27:05;20.10;25.30
54178;DHT22;40085;53.004;6.770;2023-05-28T10:29:41;20.20;27.30
54178;DHT22;40085;53.004;6.770;2023-05-28T10:32:07;20.10;23.80
54178;DHT22;40085;53.004;6.770;2023-05-28T10:34:35;20.30;23.80
54178;DHT22;40085;53.004;6.770;2023-05-28T10:37:03;20.20;23.60
54178;DHT22;40085;53.004;6.770;2023-05-28T10:42:08;20.00;20.60
54178;DHT22;40085;53.004;6.770;2023-05-28T10:47:32;19.90;19.50
54178;DHT22;40085;53.004;6.770;2023-05-28T10:52:33;19.90;18.40
54178;DHT22;40085;53.004;6.770;2023-05-28T10:55:02;20.00;19.70
54178;DHT22;40085;53.004;6.770;2023-05-28T10:57:47;20.20;20.00
54178;DHT22;40085;53.004;6.770;2023-05-28T11:00:22;20.00;1.00
54178;DHT22;40085;53.004;6.770;2023-05-28T11:02:51;20.20;1.00
54178;DHT22;40085;53.004;6.770;2023-05-28T11:05:17;20.20;1.00
54178;DHT22;40085;53.004;6.770;2023-05-28T11:07:48;20.30;8.90
54178;DHT22;40085;53.004;6.770;2023-05-28T11:10:17;20.30;1.00
54178;DHT22;40085;53.004;6.770;2023-05-28T11:12:43;20.60;1.00
54178;DHT22;40085;53.004;6.770;2023-05-28T11:15:11;20.60;1.00
54178;DHT22;40085;53.004;6.770;2023-05-28T11:17:42;20.40;1.00
54178;DHT22;40085;53.004;6.770;2023-05-28T11:20:24;20.40;1.00
54178;DHT22;40085;53.004;6.770;2023-05-28T11:22:51;20.40;1.00
54178;DHT22;40085;53.004;6.770;2023-05-28T11:25:17;20.90;1.00
54178;DHT22;40085;53.004;6.770;2023-05-28T11:27:42;20.80;1.00
54178;DHT22;40085;53.004;6.770;2023-05-28T11:30:13;20.50;1.00
54178;DHT22;40085;53.004;6.770;2023-05-28T11:32:40;20.30;99.90
54178;DHT22;40085;53.004;6.770;2023-05-28T11:35:06;20.20;99.90
54178;DHT22;40085;53.004;6.770;2023-05-28T11:37:35;20.50;99.90
54178;DHT22;40085;53.004;6.770;2023-05-28T11:40:04;21.00;99.90
54178;DHT22;40085;53.004;6.770;2023-05-28T11:42:31;20.70;99.90
54178;DHT22;40085;53.004;6.770;2023-05-28T11:44:57;21.10;99.90
54178;DHT22;40085;53.004;6.770;2023-05-28T11:47:23;21.00;99.90
54178;DHT22;40085;53.004;6.770;2023-05-28T11:49:50;21.00;99.90
54178;DHT22;40085;53.004;6.770;2023-05-28T11:52:20;21.10;1.00
54178;DHT22;40085;53.004;6.770;2023-05-28T11:54:52;21.00;1.00
54178;DHT22;40085;53.004;6.770;2023-05-28T11:57:23;21.00;1.00
54178;DHT22;40085;53.004;6.770;2023-05-28T12:00:09;21.00;1.00
54178;DHT22;40085;53.004;6.770;2023-05-28T12:02:45;20.60;99.90
54178;DHT22;40085;53.004;6.770;2023-05-28T12:05:11;20.80;99.90
54178;DHT22;40085;53.004;6.770;2023-05-28T12:07:37;20.60;99.90
54178;DHT22;40085;53.004;6.770;2023-05-28T12:10:04;20.70;99.90
54178;DHT22;40085;53.004;6.770;2023-05-28T12:12:29;20.80;99.90
54178;DHT22;40085;53.004;6.770;2023-05-28T12:14:58;21.20;99.90
54178;DHT22;40085;53.004;6.770;2023-05-28T12:17:26;21.40;99.90
54178;DHT22;40085;53.004;6.770;2023-05-28T12:19:53;21.20;99.90
54178;DHT22;40085;53.004;6.770;2023-05-28T12:22:19;20.80;99.90
54178;DHT22;40085;53.004;6.770;2023-05-28T12:24:50;21.00;99.90
54178;DHT22;40085;53.004;6.770;2023-05-28T12:27:16;20.50;99.90
54178;DHT22;40085;53.004;6.770;2023-05-28T12:29:43;21.10;99.90
54178;DHT22;40085;53.004;6.770;2023-05-28T12:32:09;21.20;99.90
54178;DHT22;40085;53.004;6.770;2023-05-28T12:34:34;21.30;99.90
54178;DHT22;40085;53.004;6.770;2023-05-28T12:37:00;21.20;99.90
54178;DHT22;40085;53.004;6.770;2023-05-28T12:39:25;21.00;99.90
54178;DHT22;40085;53.004;6.770;2023-05-28T12:41:51;21.00;99.90
54178;DHT22;40085;53.004;6.770;2023-05-28T12:44:17;20.90;99.90
54178;DHT22;40085;53.004;6.770;2023-05-28T12:46:42;21.70;99.90
54178;DHT22;40085;53.004;6.770;2023-05-28T12:49:08;21.20;99.90
54178;DHT22;40085;53.004;6.770;2023-05-28T12:51:33;20.80;99.90
54178;DHT22;40085;53.004;6.770;2023-05-28T12:53:59;21.00;99.90
54178;DHT22;40085;53.004;6.770;2023-05-28T12:56:27;21.70;99.90
54178;DHT22;40085;53.004;6.770;2023-05-28T12:58:53;21.00;99.90
54178;DHT22;40085;53.004;6.770;2023-05-28T13:01:19;21.10;1.00
54178;DHT22;40085;53.004;6.770;2023-05-28T13:08:37;21.10;19.80
54178;DHT22;40085;53.004;6.770;2023-05-28T13:11:03;21.20;29.00
54178;DHT22;40085;53.004;6.770;2023-05-28T13:13:29;21.00;28.60
54178;DHT22;40085;53.004;6.770;2023-05-28T13:15:54;21.00;28.80
54178;DHT22;40085;53.004;6.770;2023-05-28T13:18:20;21.00;29.10
54178;DHT22;40085;53.004;6.770;2023-05-28T13:20:45;20.90;29.40
54178;DHT22;40085;53.004;6.770;2023-05-28T13:23:11;21.40;30.00
54178;DHT22;40085;53.004;6.770;2023-05-28T13:25:37;20.80;29.10
54178;DHT22;40085;53.004;6.770;2023-05-28T13:28:03;21.10;30.00
54178;DHT22;40085;53.004;6.770;2023-05-28T13:30:29;20.80;30.00
54178;DHT22;40085;53.004;6.770;2023-05-28T13:32:55;20.80;29.40
54178;DHT22;40085;53.004;6.770;2023-05-28T13:35:20;20.70;28.60
54178;DHT22;40085;53.004;6.770;2023-05-28T13:37:46;20.80;29.90
54178;DHT22;40085;53.004;6.770;2023-05-28T13:40:12;20.80;29.80
54178;DHT22;40085;53.004;6.770;2023-05-28T13:42:42;20.70;29.60
54178;DHT22;40085;53.004;6.770;2023-05-28T13:45:08;21.10;29.80
54178;DHT22;40085;53.004;6.770;2023-05-28T13:47:36;20.60;29.80
54178;DHT22;40085;53.004;6.770;2023-05-28T13:50:02;20.70;30.60
54178;DHT22;40085;53.004;6.770;2023-05-28T13:52:28;20.70;31.40
54178;DHT22;40085;53.004;6.770;2023-05-28T13:54:54;20.80;33.00
54178;DHT22;40085;53.004;6.770;2023-05-28T13:57:20;20.70;31.80
54178;DHT22;40085;53.004;6.770;2023-05-28T13:59:46;20.60;31.90
54178;DHT22;40085;53.004;6.770;2023-05-28T14:02:12;20.50;29.90
54178;DHT22;40085;53.004;6.770;2023-05-28T14:04:38;20.50;30.50
54178;DHT22;40085;53.004;6.770;2023-05-28T14:07:03;20.60;30.70
54178;DHT22;40085;53.004;6.770;2023-05-28T14:09:29;20.40;31.00
54178;DHT22;40085;53.004;6.770;2023-05-28T14:11:55;20.40;30.70
54178;DHT22;40085;53.004;6.770;2023-05-28T14:14:21;20.40;29.90
54178;DHT22;40085;53.004;6.770;2023-05-28T14:16:47;20.70;29.70
54178;DHT22;40085;53.004;6.770;2023-05-28T14:19:12;20.40;28.80
54178;DHT22;40085;53.004;6.770;2023-05-28T14:21:38;20.50;29.20
54178;DHT22;40085;53.004;6.770;2023-05-28T14:24:03;20.80;29.10
54178;DHT22;40085;53.004;6.770;2023-05-28T14:26:29;20.50;28.20
54178;DHT22;40085;53.004;6.770;2023-05-28T14:28:55;20.50;28.60
54178;DHT22;40085;53.004;6.770;2023-05-28T14:31:21;20.50;28.70
54178;DHT22;40085;53.004;6.770;2023-05-28T14:33:47;20.90;29.80
54178;DHT22;40085;53.004;6.770;2023-05-28T14:36:13;20.50;28.10
54178;DHT22;40085;53.004;6.770;2023-05-28T14:38:38;20.50;27.80
54178;DHT22;40085;53.004;6.770;2023-05-28T14:41:04;20.60;27.50
54178;DHT22;40085;53.004;6.770;2023-05-28T14:43:30;20.40;26.40
54178;DHT22;40085;53.004;6.770;2023-05-28T14:45:56;20.40;28.20
54178;DHT22;40085;53.004;6.770;2023-05-28T14:48:23;20.50;41.30
54178;DHT22;40085;53.004;6.770;2023-05-28T14:50:48;20.60;27.90
54178;DHT22;40085;53.004;6.770;2023-05-28T14:53:14;20.70;28.30
54178;DHT22;40085;53.004;6.770;2023-05-28T14:55:40;20.80;27.80
54178;DHT22;40085;53.004;6.770;2023-05-28T14:58:06;20.70;40.00
54178;DHT22;40085;53.004;6.770;2023-05-28T15:00:31;21.00;26.90
54178;DHT22;40085;53.004;6.770;2023-05-28T15:02:57;20.70;26.30
54178;DHT22;40085;53.004;6.770;2023-05-28T15:05:22;20.70;27.60
54178;DHT22;40085;53.004;6.770;2023-05-28T15:07:48;20.60;26.40
54178;DHT22;40085;53.004;6.770;2023-05-28T15:10:14;20.70;25.80
54178;DHT22;40085;53.004;6.770;2023-05-28T15:12:40;20.50;26.00
54178;DHT22;40085;53.004;6.770;2023-05-28T15:15:08;20.50;25.60
54178;DHT22;40085;53.004;6.770;2023-05-28T15:17:33;20.40;24.50
54178;DHT22;40085;53.004;6.770;2023-05-28T15:19:59;20.30;24.30
54178;DHT22;40085;53.004;6.770;2023-05-28T15:22:25;20.40;24.80
54178;DHT22;40085;53.004;6.770;2023-05-28T15:24:51;20.90;26.80
54178;DHT22;40085;53.004;6.770;2023-05-28T15:27:16;20.50;25.60
54178;DHT22;40085;53.004;6.770;2023-05-28T15:29:42;20.50;26.30
54178;DHT22;40085;53.004;6.770;2023-05-28T15:32:11;20.40;25.90
54178;DHT22;40085;53.004;6.770;2023-05-28T15:34:37;20.30;25.70
54178;DHT22;40085;53.004;6.770;2023-05-28T15:37:04;20.30;25.40
54178;DHT22;40085;53.004;6.770;2023-05-28T15:39:30;20.40;25.90
54178;DHT22;40085;53.004;6.770;2023-05-28T15:41:57;20.20;25.30
54178;DHT22;40085;53.004;6.770;2023-05-28T15:44:25;20.30;26.00
54178;DHT22;40085;53.004;6.770;2023-05-28T15:46:51;20.20;25.80
54178;DHT22;40085;53.004;6.770;2023-05-28T15:49:17;20.20;25.90